Главная страница
METAR-TAF:

METAR-TAF

Аэропорты :

Порту-Алегри, Риу-Гранди-ду-Сул, Бразилия

широта: 30-01S, долгота: 051-13W, высота над уровнем моря: 47 м

Текущие метеонаблюдения

Эта сводка был подготовлена 1 час и 50 минут назад, в 17:00 UTC
Ветер 10 Узел от западный
Температура 29°C
Влажность 35%
Давление 1011 hPa
Видимость 10 км и более
небольшая облачность на высоте 4000 фута

METAR: SBCO 151700Z 28010KT 9999 FEW040 29/12 Q1011

Время: 16:50 (18:50 UTC)

Прогноз

Эта сводка был подготовлена 3 часа и 50 минут назад, в 15:00 UTC
Прогноз действительный с 15-го 18 UTC до 16-го 06 UTC
Ветер 7 Узел от западный
Видимость 10 км и более
Нет облачности ниже 1500 м, и нет кучево-дождевой облачности
изменения
С 15-го 21 UTC до 15-го 23 UTC
Ветер 6 Узел от восточный

TAF: SBCO 151500Z 1518/1606 27007KT CAVOK TX29/1518Z TN18/1606Z BECMG 1521/1523 10006KT RMK PER

Метеонаблюдения и прогнозы для более 4000 аэропортов (сводки METAR и TAF).

Имеющиеся станции представлены на карте желтыми и красными точками.

Чтобы увидеть название станции, наведите на нее мышь.

Затем щелкните, чтобы увидеть метеонаблюдения и метеопрогнозы.

Управление картой: чтобы увеличить масштаб, щелкните зеленые кнопки с черным крестиком; чтобы уменьшить масштаб, щелкните зеленую кнопку с тире; для просмотра соседних карт щелкайте зеленые стрелки.


METAR-TAF: